Terminal Aerodrome Forecast
Issued by NWS Duluth, MN

Home | Current Version | Previous Version | Text Only | Print | Product List | Glossary On
Versions: 1 2 3 4 5 6 7 8 9 10 11 12 13 14 15 16 17 18 19 20 21
000
FTUS43 KDLH 251100 RRA
TAFINL
TAF
KINL 251141Z 2512/2612 08008KT P6SM SCT015 BKN100
      TEMPO 2512/2515 BKN015 OVC100
     FM252000 17004KT P6SM SCT025 BKN070
     FM260300 19007KT P6SM BKN025 OVC040
     FM260500 18009KT 3SM -SN BKN015 BKN035
     FM261000 22009KT 3SM -SN OVC009=

USA.gov is the U.S. government's official web portal to all federal, state and local government web resources and services.